Time;durP1;ratioP1;P1;durP2;ratioP2;P2;SDS_P1;SDS_P2;PMS_P1;PMS_P2;Temp;Humidity;BMP_temperature;BMP_pressure;BME280_temperature;BME280_humidity;BME280_pressure;Samples;Min_cycle;Max_cycle;Signal;HPM_P1;HPM_P2
2021/04/16 00:01:52;;;;;;;8.13;4.77;;;-0.10;99.90;;;;;;5028376;28;20975;-68
2021/04/16 00:04:19;;;;;;;6.63;5.73;;;-0.10;99.90;;;;;;5029270;27;20443;-67
2021/04/16 00:06:46;;;;;;;7.93;4.90;;;-0.10;99.90;;;;;;5028476;28;20424;-68
2021/04/16 00:09:13;;;;;;;8.40;5.50;;;-0.10;99.90;;;;;;5027635;28;20468;-68
2021/04/16 00:11:40;;;;;;;7.40;5.30;;;-0.20;99.90;;;;;;5028125;28;20447;-68
2021/04/16 00:14:07;;;;;;;11.20;6.50;;;-0.20;99.90;;;;;;5028408;28;20444;-68
2021/04/16 00:16:33;;;;;;;9.60;5.47;;;-0.20;99.90;;;;;;5028369;28;20434;-68
2021/04/16 00:19:00;;;;;;;6.20;4.50;;;-0.20;99.90;;;;;;5028013;28;20436;-68
2021/04/16 00:21:28;;;;;;;5.90;5.00;;;-0.30;99.90;;;;;;5028171;28;20440;-68
2021/04/16 00:23:55;;;;;;;9.23;6.47;;;-0.30;99.90;;;;;;5028051;28;20812;-67
2021/04/16 00:26:22;;;;;;;6.43;5.50;;;-0.30;99.90;;;;;;5029425;27;20854;-68
2021/04/16 00:28:49;;;;;;;7.10;5.50;;;-0.40;99.90;;;;;;5027596;28;20467;-68
2021/04/16 00:31:19;;;;;;;9.33;6.07;;;-0.40;99.90;;;;;;5028046;28;20985;-68
2021/04/16 00:33:46;;;;;;;9.30;6.30;;;-0.50;99.90;;;;;;5027821;28;20464;-68
2021/04/16 00:36:13;;;;;;;10.13;5.60;;;-0.50;99.90;;;;;;5028087;28;20432;-68
2021/04/16 00:38:40;;;;;;;7.77;5.03;;;-0.50;99.90;;;;;;5027720;28;20439;-68
2021/04/16 00:41:11;;;;;;;8.20;5.00;;;-0.50;99.90;;;;;;5030794;28;20523;-67
2021/04/16 00:43:38;;;;;;;6.47;5.70;;;-0.50;99.90;;;;;;5034168;28;20467;-67
2021/04/16 00:46:18;;;;;;;8.10;5.90;;;-0.50;99.90;;;;;;5034591;28;20427;-68
2021/04/16 00:48:48;;;;;;;5.97;5.37;;;-0.60;99.90;;;;;;5034079;28;20471;-68
2021/04/16 00:51:25;;;;;;;9.73;5.53;;;-0.60;99.90;;;;;;5034322;28;20443;-68
2021/04/16 00:53:52;;;;;;;7.73;5.33;;;-0.60;99.90;;;;;;5034442;28;20813;-68
2021/04/16 00:56:20;;;;;;;8.10;4.67;;;-0.60;99.90;;;;;;5034417;28;20448;-67
2021/04/16 00:58:47;;;;;;;6.03;5.03;;;-0.60;99.90;;;;;;5033842;28;20430;-68
2021/04/16 01:01:14;;;;;;;6.33;5.60;;;-0.60;99.90;;;;;;5034292;28;20449;-67
2021/04/16 01:03:41;;;;;;;5.80;5.17;;;-0.60;99.90;;;;;;5033953;28;20488;-68
2021/04/16 01:06:10;;;;;;;5.00;4.50;;;-0.60;99.90;;;;;;5034394;28;20434;-68
2021/04/16 01:08:38;;;;;;;6.20;5.50;;;-0.60;99.90;;;;;;5033820;28;20474;-67
2021/04/16 01:11:07;;;;;;;7.00;5.20;;;-0.60;99.90;;;;;;5034385;28;20888;-68
2021/04/16 01:13:35;;;;;;;5.30;4.53;;;-0.70;99.90;;;;;;5035337;27;20954;-68
2021/04/16 01:16:03;;;;;;;8.87;6.03;;;-0.80;99.90;;;;;;5033846;28;20443;-68
2021/04/16 01:18:34;;;;;;;8.43;5.53;;;-0.80;99.90;;;;;;5034102;28;20435;-68
2021/04/16 01:21:05;;;;;;;9.03;5.80;;;-0.80;99.90;;;;;;5033924;28;20451;-68
2021/04/16 01:23:42;;;;;;;13.70;5.30;;;-0.80;99.90;;;;;;5034001;28;20454;-67
2021/04/16 01:26:15;;;;;;;6.03;4.83;;;-0.80;99.90;;;;;;5033915;28;20442;-68
2021/04/16 01:28:42;;;;;;;9.60;5.20;;;-0.80;99.90;;;;;;5033691;28;20990;-67
2021/04/16 01:31:11;;;;;;;4.83;3.73;;;-0.70;99.90;;;;;;5033719;28;20436;-68
2021/04/16 01:33:39;;;;;;;6.57;5.00;;;-0.80;99.90;;;;;;5033757;28;20463;-67
2021/04/16 01:36:07;;;;;;;6.23;4.90;;;-0.80;99.90;;;;;;5033880;28;20522;-67
2021/04/16 01:38:35;;;;;;;11.07;4.60;;;-0.80;99.90;;;;;;5033831;28;20431;-67
2021/04/16 01:41:02;;;;;;;6.97;5.63;;;-0.80;99.90;;;;;;5033596;28;20431;-68
2021/04/16 01:43:34;;;;;;;8.07;5.47;;;-0.80;99.90;;;;;;5033757;28;20467;-68
2021/04/16 01:46:03;;;;;;;4.77;4.13;;;-0.80;99.90;;;;;;5033714;28;20447;-68
2021/04/16 01:48:38;;;;;;;6.20;5.10;;;-0.70;99.90;;;;;;5033627;28;20474;-68
2021/04/16 01:51:07;;;;;;;10.07;5.67;;;-0.70;99.90;;;;;;5033465;28;20439;-68
2021/04/16 01:53:34;;;;;;;5.17;4.20;;;-0.70;99.90;;;;;;5029961;28;20467;-68
2021/04/16 01:56:01;;;;;;;6.57;4.30;;;-0.70;99.90;;;;;;5030330;28;20481;-68
2021/04/16 01:58:29;;;;;;;7.03;5.27;;;-0.80;99.90;;;;;;5030496;28;20445;-68
2021/04/16 02:00:58;;;;;;;6.90;5.30;;;-0.80;99.90;;;;;;5029918;28;20423;-68
2021/04/16 02:03:25;;;;;;;6.00;4.53;;;-0.80;99.90;;;;;;5031290;27;20470;-68
2021/04/16 02:05:52;;;;;;;9.17;5.07;;;-0.80;99.90;;;;;;5030114;28;20428;-68
2021/04/16 02:08:19;;;;;;;5.33;4.50;;;-0.90;99.90;;;;;;5030013;28;20471;-68
2021/04/16 02:10:46;;;;;;;8.27;4.40;;;-0.90;99.90;;;;;;5029988;28;20512;-67
2021/04/16 02:13:13;;;;;;;6.67;4.37;;;-0.90;99.90;;;;;;5030002;28;20469;-68
2021/04/16 02:15:41;;;;;;;5.80;5.00;;;-0.90;99.90;;;;;;5030183;28;20662;-68
2021/04/16 02:18:08;;;;;;;6.97;5.13;;;-0.90;99.90;;;;;;5031009;27;20451;-68
2021/04/16 02:20:35;;;;;;;6.50;4.20;;;-0.80;99.90;;;;;;5029654;28;20428;-68
2021/04/16 02:23:02;;;;;;;6.33;5.50;;;-0.80;99.90;;;;;;5029999;28;20447;-68
2021/04/16 02:25:29;;;;;;;5.63;4.07;;;-0.90;99.90;;;;;;5030089;28;20444;-68
2021/04/16 02:27:55;;;;;;;4.97;4.17;;;-0.90;99.90;;;;;;5029823;28;20476;-68
2021/04/16 02:30:26;;;;;;;6.07;4.50;;;-0.90;99.90;;;;;;5029621;28;20430;-68
2021/04/16 02:32:53;;;;;;;5.43;4.93;;;-0.90;99.90;;;;;;5029464;28;20471;-68
2021/04/16 02:35:21;;;;;;;5.53;4.87;;;-0.90;99.90;;;;;;5029845;28;21200;-68
2021/04/16 02:37:48;;;;;;;5.87;5.20;;;-0.90;99.90;;;;;;5029799;28;20436;-67
2021/04/16 02:40:18;;;;;;;6.57;4.73;;;-1.00;99.90;;;;;;5029531;28;20436;-68
2021/04/16 02:42:45;;;;;;;10.03;5.40;;;-1.00;99.90;;;;;;5030987;27;20478;-68
2021/04/16 02:45:15;;;;;;;7.70;5.97;;;-1.00;99.90;;;;;;5029694;28;20525;-68
2021/04/16 02:47:42;;;;;;;6.20;5.60;;;-1.00;99.90;;;;;;5029563;28;20479;-68
2021/04/16 02:50:14;;;;;;;6.43;5.57;;;-1.10;99.90;;;;;;5029649;28;20853;-68
2021/04/16 02:52:41;;;;;;;4.40;4.00;;;-1.10;99.90;;;;;;5029385;28;20450;-68
2021/04/16 02:55:09;;;;;;;5.10;4.60;;;-1.10;99.90;;;;;;5029555;28;20431;-68
2021/04/16 02:57:36;;;;;;;10.93;4.40;;;-1.10;99.90;;;;;;5029136;28;20428;-68
2021/04/16 03:00:05;;;;;;;4.87;4.43;;;-1.10;99.90;;;;;;5029479;28;20423;-68
2021/04/16 03:02:32;;;;;;;9.60;6.20;;;-1.20;99.90;;;;;;5029369;28;20451;-68
2021/04/16 03:04:59;;;;;;;7.10;5.10;;;-1.20;99.90;;;;;;5028091;28;20785;-68
2021/04/16 03:07:26;;;;;;;6.83;5.80;;;-1.20;99.90;;;;;;5029293;28;20435;-68
2021/04/16 03:09:53;;;;;;;6.33;4.63;;;-1.20;99.90;;;;;;5029868;27;20450;-68
2021/04/16 03:12:20;;;;;;;6.87;5.33;;;-1.30;99.90;;;;;;5029114;28;20449;-68
2021/04/16 03:14:46;;;;;;;9.10;5.43;;;-1.20;99.90;;;;;;5029146;28;20430;-67
2021/04/16 03:17:13;;;;;;;23.27;15.40;;;-1.20;99.90;;;;;;5029076;28;20434;-68
2021/04/16 03:19:40;;;;;;;25.20;16.27;;;-1.30;99.90;;;;;;5029170;28;20439;-68
2021/04/16 03:22:07;;;;;;;7.23;6.53;;;-1.30;99.90;;;;;;5028946;28;20455;-68
2021/04/16 03:24:34;;;;;;;12.03;10.97;;;-1.30;99.90;;;;;;5028740;28;20443;-68
2021/04/16 03:27:01;;;;;;;9.33;5.90;;;-1.30;99.90;;;;;;5030492;27;20461;-68
2021/04/16 03:29:28;;;;;;;7.20;6.23;;;-1.30;99.90;;;;;;5028671;28;20479;-68
2021/04/16 03:31:54;;;;;;;5.70;5.20;;;-1.30;99.90;;;;;;5028836;28;20504;-68
2021/04/16 03:34:21;;;;;;;9.07;8.00;;;-1.30;99.90;;;;;;5028787;28;20462;-68
2021/04/16 03:36:49;;;;;;;8.57;7.67;;;-1.40;99.90;;;;;;5028808;28;20435;-68
2021/04/16 03:39:16;;;;;;;39.87;27.17;;;-1.40;99.90;;;;;;5028175;28;20432;-68
2021/04/16 03:41:44;;;;;;;14.17;10.73;;;-1.40;99.90;;;;;;5028824;28;20920;-68
2021/04/16 03:44:10;;;;;;;8.83;7.23;;;-1.40;99.90;;;;;;5028648;28;20912;-68
2021/04/16 03:46:37;;;;;;;7.60;6.03;;;-1.40;99.90;;;;;;5028789;28;20424;-68
2021/04/16 03:49:04;;;;;;;6.97;6.10;;;-1.40;99.90;;;;;;5028561;28;20478;-68
2021/04/16 03:51:31;;;;;;;5.43;4.93;;;-1.40;99.90;;;;;;5029719;27;20447;-68
2021/04/16 03:54:00;;;;;;;8.07;6.23;;;-1.40;99.90;;;;;;5028110;28;20463;-68
2021/04/16 03:56:26;;;;;;;9.00;7.47;;;-1.50;99.90;;;;;;5045253;28;20848;-68
2021/04/16 03:58:54;;;;;;;6.53;5.90;;;-1.50;99.90;;;;;;5047871;28;20491;-68
2021/04/16 04:01:24;;;;;;;12.10;10.80;;;-1.50;99.90;;;;;;5047993;28;20443;-68
2021/04/16 04:03:50;;;;;;;8.53;5.40;;;-1.60;99.90;;;;;;5047631;28;20502;-68
2021/04/16 04:06:17;;;;;;;10.13;6.60;;;-1.50;99.90;;;;;;5048122;28;20433;-68
2021/04/16 04:08:44;;;;;;;4.97;4.30;;;-1.50;99.90;;;;;;5041831;27;20471;-68
2021/04/16 04:11:10;;;;;;;15.60;9.33;;;-1.50;99.90;;;;;;5048421;28;20863;-68
2021/04/16 04:13:37;;;;;;;9.33;8.33;;;-1.50;99.90;;;;;;5048095;28;20523;-68
2021/04/16 04:16:05;;;;;;;8.40;6.00;;;-1.60;99.90;;;;;;5047821;28;20465;-68
2021/04/16 04:18:32;;;;;;;10.03;8.13;;;-1.50;99.90;;;;;;5048058;28;20930;-68
2021/04/16 04:21:00;;;;;;;10.00;9.00;;;-1.50;99.90;;;;;;5036060;27;20447;-68
2021/04/16 04:23:27;;;;;;;7.33;5.70;;;-1.50;99.90;;;;;;5028026;28;20450;-68
2021/04/16 04:25:53;;;;;;;10.97;7.07;;;-1.50;99.90;;;;;;5028299;28;20876;-68
2021/04/16 04:28:20;;;;;;;7.60;6.47;;;-1.50;99.90;;;;;;5029222;27;20542;-67
2021/04/16 04:30:47;;;;;;;8.73;7.70;;;-1.50;99.90;;;;;;5027790;28;20916;-68
2021/04/16 04:33:15;;;;;;;9.03;7.63;;;-1.60;99.90;;;;;;5027964;28;20466;-68
2021/04/16 04:35:45;;;;;;;8.87;6.90;;;-1.60;99.90;;;;;;5027980;28;20987;-68
2021/04/16 04:38:11;;;;;;;10.90;8.27;;;-1.50;99.90;;;;;;5028080;28;20442;-68
2021/04/16 04:40:38;;;;;;;7.00;6.30;;;-1.60;99.90;;;;;;5027753;28;20442;-67
2021/04/16 04:43:06;;;;;;;9.80;8.80;;;-1.60;99.90;;;;;;5027703;28;20996;-68
2021/04/16 04:45:33;;;;;;;10.47;8.50;;;-1.60;99.90;;;;;;5027886;28;20424;-67
2021/04/16 04:48:00;;;;;;;10.00;7.73;;;-1.60;99.90;;;;;;5028011;28;20479;-69
2021/04/16 04:50:30;;;;;;;32.37;24.40;;;-1.50;99.90;;;;;;5027734;28;20812;-70
2021/04/16 04:53:00;;;;;;;14.60;10.83;;;-1.40;99.90;;;;;;5027642;28;20464;-70
2021/04/16 04:55:29;;;;;;;9.40;8.33;;;-1.20;99.90;;;;;;5027941;28;20444;-69
2021/04/16 04:57:57;;;;;;;15.20;13.67;;;-1.20;99.90;;;;;;5027640;28;20751;-69
2021/04/16 05:00:25;;;;;;;14.00;12.43;;;-1.10;99.90;;;;;;5027485;28;20436;-70
2021/04/16 05:02:52;;;;;;;9.10;8.17;;;-1.20;99.90;;;;;;5027588;28;20450;-70
2021/04/16 05:05:21;;;;;;;9.20;7.03;;;-1.20;99.90;;;;;;5027411;28;20428;-70
2021/04/16 05:07:49;;;;;;;7.30;6.13;;;-1.10;99.90;;;;;;5028074;28;20477;-70
2021/04/16 05:10:17;;;;;;;7.53;6.20;;;-1.10;99.90;;;;;;5047212;28;20947;-70
2021/04/16 05:12:43;;;;;;;7.37;6.67;;;-1.10;99.90;;;;;;5047622;28;20455;-70
2021/04/16 05:15:11;;;;;;;11.93;7.50;;;-1.10;99.90;;;;;;5047908;28;20433;-70
2021/04/16 05:17:37;;;;;;;14.50;7.13;;;-1.00;99.90;;;;;;5048201;28;20933;-70
2021/04/16 05:20:07;;;;;;;9.57;7.07;;;-1.00;99.90;;;;;;5047973;28;20479;-70
2021/04/16 05:22:34;;;;;;;11.20;8.40;;;-1.00;99.90;;;;;;5048216;28;20457;-70
2021/04/16 05:25:01;;;;;;;10.40;6.43;;;-1.00;99.90;;;;;;5048367;28;20422;-69
2021/04/16 05:27:29;;;;;;;8.60;6.20;;;-1.00;99.90;;;;;;5047881;28;20419;-70
2021/04/16 05:29:55;;;;;;;7.33;6.50;;;-1.00;99.90;;;;;;5050433;28;20556;-69
2021/04/16 05:32:22;;;;;;;10.43;6.00;;;-0.90;99.90;;;;;;5050398;28;20449;-69
2021/04/16 05:34:49;;;;;;;8.87;6.17;;;-0.90;99.90;;;;;;5050762;28;20933;-69
2021/04/16 05:37:16;;;;;;;5.83;5.23;;;-0.90;99.90;;;;;;5050569;28;20429;-70
2021/04/16 05:39:44;;;;;;;6.60;5.47;;;-0.90;99.90;;;;;;5050402;28;20517;-70
2021/04/16 05:42:11;;;;;;;7.57;5.83;;;-0.90;99.90;;;;;;5050371;28;20462;-68
2021/04/16 05:44:38;;;;;;;7.50;6.50;;;-0.80;99.90;;;;;;5050899;28;20438;-68
2021/04/16 05:47:05;;;;;;;6.43;5.20;;;-0.70;99.90;;;;;;5050305;28;20932;-70
2021/04/16 05:49:32;;;;;;;7.53;6.27;;;-0.70;99.90;;;;;;5050120;28;20494;-69
2021/04/16 05:51:59;;;;;;;11.90;5.23;;;-0.70;99.90;;;;;;5050103;28;20514;-70
2021/04/16 05:54:26;;;;;;;7.70;6.17;;;-0.70;99.90;;;;;;5050019;28;20446;-70
2021/04/16 05:56:52;;;;;;;8.00;6.10;;;-0.60;99.90;;;;;;5050211;28;20434;-70
2021/04/16 05:59:20;;;;;;;8.20;6.57;;;-0.60;99.90;;;;;;5049003;28;20435;-69
2021/04/16 06:01:47;;;;;;;7.77;6.20;;;-0.50;99.90;;;;;;5050278;28;20427;-70
2021/04/16 06:04:20;;;;;;;15.73;13.70;;;-0.50;99.90;;;;;;5050292;28;20434;-70
2021/04/16 06:06:48;;;;;;;22.13;12.50;;;-0.40;99.90;;;;;;5050248;28;20427;-69
2021/04/16 06:09:15;;;;;;;15.53;10.80;;;-0.30;99.90;;;;;;5036853;27;20512;-69
2021/04/16 06:11:42;;;;;;;15.60;12.20;;;-0.30;99.90;;;;;;5029908;28;20454;-69
2021/04/16 06:14:09;;;;;;;14.07;8.73;;;-0.30;99.90;;;;;;5030001;28;20849;-69
2021/04/16 06:16:37;;;;;;;21.40;9.73;;;-0.20;99.90;;;;;;5029974;28;20457;-69
2021/04/16 06:19:03;;;;;;;30.87;17.87;;;-0.20;99.90;;;;;;5029809;28;20438;-69
2021/04/16 06:21:30;;;;;;;21.03;13.83;;;-0.10;99.90;;;;;;5030047;28;20969;-70
2021/04/16 06:23:57;;;;;;;11.93;7.70;;;0.00;99.90;;;;;;5029867;28;20448;-69
2021/04/16 06:26:24;;;;;;;15.47;9.23;;;0.10;99.90;;;;;;5030437;27;20469;-69
2021/04/16 06:28:51;;;;;;;18.37;11.37;;;0.00;99.90;;;;;;5029552;28;20471;-70
2021/04/16 06:31:18;;;;;;;32.47;13.60;;;0.10;99.90;;;;;;5029754;28;20569;-69
2021/04/16 06:33:46;;;;;;;7.63;6.90;;;0.20;99.90;;;;;;5029534;28;20971;-69
2021/04/16 06:36:16;;;;;;;15.33;9.73;;;0.20;99.90;;;;;;5029923;28;20948;-69
2021/04/16 06:38:44;;;;;;;17.73;8.30;;;0.30;99.90;;;;;;5029592;28;20431;-70
2021/04/16 06:41:18;;;;;;;10.87;8.83;;;0.40;99.90;;;;;;5034168;27;20469;-71
2021/04/16 06:43:48;;;;;;;7.97;7.13;;;0.50;99.90;;;;;;5039080;28;20462;-70
2021/04/16 06:46:22;;;;;;;9.33;8.43;;;0.60;99.90;;;;;;5049215;28;20521;-70
2021/04/16 06:48:50;;;;;;;12.87;9.00;;;0.70;99.90;;;;;;5048896;28;21054;-70
2021/04/16 06:51:21;;;;;;;14.20;12.47;;;0.80;99.90;;;;;;5049272;28;20436;-70
2021/04/16 06:53:55;;;;;;;9.50;8.50;;;0.90;99.90;;;;;;5044831;27;20472;-69
2021/04/16 06:56:27;;;;;;;8.00;7.20;;;1.00;99.90;;;;;;5029498;28;21007;-69
2021/04/16 06:59:00;;;;;;;7.00;6.30;;;1.10;99.90;;;;;;5030461;28;20434;-68
2021/04/16 07:01:31;;;;;;;10.47;7.73;;;1.20;99.90;;;;;;5049148;28;20510;-69
2021/04/16 07:04:24;;;;;;;17.23;10.07;;;1.20;99.90;;;;;;5049059;28;20462;-68
2021/04/16 07:06:53;;;;;;;13.10;7.57;;;1.10;99.90;;;;;;5037307;27;20446;-68
2021/04/16 07:09:26;;;;;;;10.30;7.50;;;1.20;99.90;;;;;;5028766;28;20464;-67
2021/04/16 07:12:03;;;;;;;20.40;9.83;;;1.20;99.90;;;;;;5029942;28;20472;-67
2021/04/16 07:14:36;;;;;;;41.20;25.80;;;1.30;99.90;;;;;;5029952;27;20444;-68
2021/04/16 07:17:03;;;;;;;19.20;12.73;;;1.30;99.90;;;;;;5029011;28;20424;-67
2021/04/16 07:19:31;;;;;;;27.97;15.73;;;1.30;99.90;;;;;;5029744;27;20535;-67
2021/04/16 07:22:00;;;;;;;14.00;8.80;;;1.40;99.90;;;;;;5029114;28;20447;-67
2021/04/16 07:24:27;;;;;;;14.47;10.80;;;1.50;99.90;;;;;;5028857;28;20443;-67
2021/04/16 07:26:57;;;;;;;13.70;8.00;;;1.60;99.90;;;;;;5028638;28;20431;-68
2021/04/16 07:29:40;;;;;;;9.23;7.60;;;1.60;99.90;;;;;;5028537;28;20475;-68
2021/04/16 07:32:13;;;;;;;16.03;8.23;;;1.70;99.90;;;;;;5028823;28;20455;-68
2021/04/16 07:34:46;;;;;;;10.37;7.47;;;1.70;99.90;;;;;;5028600;28;20444;-67
2021/04/16 07:37:17;;;;;;;7.87;7.07;;;1.80;99.90;;;;;;5044439;28;20470;-67
2021/04/16 07:39:50;;;;;;;7.00;6.23;;;1.90;99.90;;;;;;5028497;28;20424;-68
2021/04/16 07:42:24;;;;;;;16.20;7.00;;;1.90;99.90;;;;;;5028738;28;20530;-68
2021/04/16 07:45:02;;;;;;;8.63;6.83;;;1.90;99.90;;;;;;5028932;28;20416;-67
2021/04/16 07:47:31;;;;;;;9.93;6.87;;;2.00;99.90;;;;;;5028436;28;20948;-67
2021/04/16 07:50:02;;;;;;;7.50;6.50;;;2.20;99.90;;;;;;5027508;28;20478;-66
2021/04/16 07:52:35;;;;;;;8.90;6.03;;;2.20;99.90;;;;;;5028349;28;20455;-66
2021/04/16 07:55:18;;;;;;;9.67;6.87;;;2.30;99.90;;;;;;5028202;28;20438;-66
2021/04/16 07:57:59;;;;;;;10.67;7.20;;;2.40;99.90;;;;;;5028675;28;20432;-67
2021/04/16 08:00:29;;;;;;;9.47;6.30;;;2.50;99.90;;;;;;5029227;27;20458;-68
2021/04/16 08:03:08;;;;;;;8.37;6.03;;;2.60;99.90;;;;;;5028382;28;20557;-67
2021/04/16 08:05:40;;;;;;;7.73;6.20;;;2.70;99.90;;;;;;5028292;28;20908;-67
2021/04/16 08:08:09;;;;;;;6.40;5.33;;;2.70;99.90;;;;;;5029121;27;20444;-67
2021/04/16 08:10:38;;;;;;;6.33;5.70;;;2.80;99.90;;;;;;5027933;28;20424;-67
2021/04/16 08:13:10;;;;;;;15.13;8.10;;;3.00;99.90;;;;;;5027942;28;20463;-67
2021/04/16 08:15:37;;;;;;;8.80;6.13;;;3.30;99.90;;;;;;5028114;28;20492;-67
2021/04/16 08:18:09;;;;;;;5.53;5.00;;;3.50;99.90;;;;;;5027913;28;21096;-67
2021/04/16 08:20:45;;;;;;;6.37;5.60;;;3.50;99.90;;;;;;5027815;28;20444;-67
2021/04/16 08:23:15;;;;;;;5.77;5.27;;;3.60;99.90;;;;;;5027524;28;20959;-67
2021/04/16 08:25:46;;;;;;;5.93;5.33;;;3.70;99.90;;;;;;5027956;28;20526;-67
2021/04/16 08:28:18;;;;;;;6.77;6.07;;;3.80;99.90;;;;;;5027849;28;20452;-67
2021/04/16 08:30:55;;;;;;;12.07;5.97;;;3.90;99.90;;;;;;5027856;28;20430;-67
2021/04/16 08:33:32;;;;;;;7.33;6.20;;;4.10;99.90;;;;;;5027493;28;20506;-67
2021/04/16 08:36:06;;;;;;;10.43;6.10;;;4.20;99.90;;;;;;5033950;28;20423;-67
2021/04/16 08:38:38;;;;;;;6.80;6.10;;;4.40;99.90;;;;;;5047531;28;20790;-66
2021/04/16 08:41:10;;;;;;;8.80;7.73;;;4.50;99.90;;;;;;5047474;28;20447;-66
2021/04/16 08:43:40;;;;;;;12.07;8.17;;;4.60;99.90;;;;;;5047423;28;20526;-66
2021/04/16 08:46:18;;;;;;;6.07;5.47;;;4.40;99.90;;;;;;5047483;28;20443;-66
2021/04/16 08:48:51;;;;;;;6.30;5.50;;;4.40;99.90;;;;;;5047435;28;20473;-67
2021/04/16 08:51:22;;;;;;;9.03;8.13;;;4.30;99.90;;;;;;5047771;28;20431;-66
2021/04/16 08:53:48;;;;;;;18.57;12.93;;;4.30;99.90;;;;;;5047205;28;20457;-67
2021/04/16 08:56:22;;;;;;;9.83;7.67;;;4.40;99.90;;;;;;5047331;28;20458;-67
2021/04/16 08:58:50;;;;;;;7.07;5.67;;;4.60;99.90;;;;;;5047128;28;20653;-66
2021/04/16 09:01:21;;;;;;;6.97;4.80;;;4.80;99.90;;;;;;5047602;28;20438;-66
2021/04/16 09:03:50;;;;;;;5.70;5.03;;;5.00;99.90;;;;;;5040843;27;20479;-66
2021/04/16 09:06:42;;;;;;;5.00;4.50;;;4.80;99.90;;;;;;5030782;28;20432;-66
2021/04/16 09:09:14;;;;;;;4.43;4.03;;;4.60;99.90;;;;;;5030328;28;20497;-66
2021/04/16 09:11:55;;;;;;;6.20;5.60;;;4.40;99.90;;;;;;5030999;28;20471;-66
2021/04/16 09:14:51;;;;;;;6.73;6.13;;;4.60;99.90;;;;;;5032218;27;20491;-66
2021/04/16 09:17:18;;;;;;;6.43;5.20;;;4.70;99.90;;;;;;5025676;28;20975;-67
2021/04/16 09:20:00;;;;;;;5.33;4.27;;;5.10;99.90;;;;;;5030564;28;20526;-66
2021/04/16 09:22:49;;;;;;;4.80;4.40;;;5.40;99.90;;;;;;5030520;28;20467;-66
2021/04/16 09:25:45;;;;;;;4.83;4.43;;;5.40;99.90;;;;;;5030500;28;20824;-66
2021/04/16 09:28:35;;;;;;;6.20;4.47;;;5.60;99.90;;;;;;4995776;27;20897;-66
2021/04/16 09:31:04;;;;;;;5.27;4.77;;;5.90;99.90;;;;;;5030798;28;20438;-66
2021/04/16 09:33:45;;;;;;;4.97;4.57;;;6.20;99.90;;;;;;5030790;28;20478;-66
2021/04/16 09:36:33;;;;;;;7.87;5.43;;;6.40;99.90;;;;;;5038094;28;20453;-66
2021/04/16 09:39:13;;;;;;;4.00;3.70;;;6.60;99.90;;;;;;5049935;28;20439;-66
2021/04/16 09:41:42;;;;;;;5.97;4.50;;;6.80;99.90;;;;;;5050387;28;20455;-66
2021/04/16 09:44:35;;;;;;;5.43;3.60;;;6.80;99.90;;;;;;5050746;28;20522;-66
2021/04/16 09:47:04;;;;;;;4.47;3.73;;;6.30;99.90;;;;;;5050392;28;20443;-66
2021/04/16 09:49:37;;;;;;;5.90;4.10;;;5.80;99.90;;;;;;5050098;28;20502;-66
2021/04/16 09:52:37;;;;;;;3.50;3.20;;;5.50;99.90;;;;;;5050359;28;20447;-66
2021/04/16 09:55:36;;;;;;;4.33;3.93;;;5.70;99.90;;;;;;5047636;27;20462;-66
2021/04/16 09:58:04;;;;;;;4.70;4.30;;;6.00;99.90;;;;;;5050237;28;20956;-66
2021/04/16 10:01:05;;;;;;;4.20;3.90;;;6.40;99.90;;;;;;5049911;28;20453;-66
2021/04/16 10:03:48;;;;;;;4.20;3.80;;;6.90;99.90;;;;;;5050209;28;20873;-66
2021/04/16 10:06:21;;;;;;;3.87;3.57;;;7.40;99.90;;;;;;5050126;28;20427;-66
2021/04/16 10:09:02;;;;;;;4.40;3.50;;;7.50;99.90;;;;;;5048635;28;20990;-66
2021/04/16 10:11:29;;;;;;;5.30;4.17;;;7.60;99.90;;;;;;5049695;28;20447;-66
2021/04/16 10:14:13;;;;;;;4.20;3.90;;;7.60;99.90;;;;;;5045550;27;20481;-66
2021/04/16 10:16:40;;;;;;;4.27;3.87;;;7.50;99.90;;;;;;5030022;28;20439;-66
2021/04/16 10:19:11;;;;;;;4.13;3.30;;;7.50;99.90;;;;;;5029574;28;20450;-66
2021/04/16 10:21:39;;;;;;;3.53;3.20;;;7.70;99.90;;;;;;5029942;28;20424;-66
2021/04/16 12:39:07;;;;;;;6.03;2.93;;;10.60;84.30;;;;;;5047562;28;20463;-65
2021/04/16 12:41:37;;;;;;;3.40;3.10;;;10.90;85.40;;;;;;5047416;28;20480;-65
2021/04/16 12:44:07;;;;;;;3.57;3.27;;;10.90;85.40;;;;;;5047554;28;20814;-66
2021/04/16 12:46:36;;;;;;;4.90;3.53;;;10.70;81.90;;;;;;5047348;28;20422;-65
2021/04/16 12:49:03;;;;;;;4.57;3.60;;;10.60;86.50;;;;;;5047359;28;20467;-66
2021/04/16 12:51:31;;;;;;;4.30;3.70;;;10.30;89.00;;;;;;5047503;28;20423;-65
2021/04/16 12:53:58;;;;;;;4.80;3.30;;;10.20;90.80;;;;;;5047187;28;20443;-66
2021/04/16 12:56:32;;;;;;;3.73;3.17;;;9.70;90.30;;;;;;5047332;28;20427;-66
2021/04/16 12:59:05;;;;;;;4.20;3.63;;;9.00;91.10;;;;;;5038276;27;20440;-65
2021/04/16 13:01:33;;;;;;;4.47;4.07;;;8.80;92.60;;;;;;5027251;28;20971;-65
2021/04/16 13:04:00;;;;;;;3.97;3.57;;;9.10;92.00;;;;;;5027425;28;20451;-66
2021/04/16 13:06:31;;;;;;;4.43;3.63;;;8.90;91.10;;;;;;5027662;28;20436;-66
2021/04/16 13:08:58;;;;;;;3.23;2.93;;;8.80;90.60;;;;;;5027119;28;20501;-66
2021/04/16 13:11:27;;;;;;;3.87;3.47;;;9.30;91.40;;;;;;5027510;28;20853;-66
2021/04/16 13:13:54;;;;;;;7.60;4.23;;;9.60;91.80;;;;;;5027250;28;20543;-65
2021/04/16 13:16:22;;;;;;;5.07;4.03;;;9.40;91.20;;;;;;5027052;28;20948;-66
2021/04/16 13:18:52;;;;;;;5.30;4.40;;;9.30;92.00;;;;;;5027039;28;20432;-66
2021/04/16 13:21:23;;;;;;;6.80;4.47;;;9.80;90.70;;;;;;5027296;28;20416;-66
2021/04/16 13:23:50;;;;;;;4.77;4.30;;;10.60;90.70;;;;;;5027214;28;20455;-66
2021/04/16 13:26:17;;;;;;;5.00;4.30;;;11.10;88.40;;;;;;5027147;28;20434;-65
2021/04/16 13:28:43;;;;;;;3.90;3.50;;;11.40;85.20;;;;;;5026916;28;20486;-66
2021/04/16 13:31:10;;;;;;;4.20;3.17;;;11.30;83.90;;;;;;5026861;28;20431;-65
2021/04/16 13:33:41;;;;;;;5.80;4.30;;;10.90;84.50;;;;;;5026566;28;20459;-66
2021/04/16 13:36:14;;;;;;;3.80;3.50;;;10.40;83.80;;;;;;5034429;28;20440;-65
2021/04/16 13:38:41;;;;;;;4.90;3.80;;;10.60;86.90;;;;;;5046458;28;20427;-65
2021/04/16 13:41:08;;;;;;;4.13;3.50;;;11.10;88.10;;;;;;5046466;28;20812;-65
2021/04/16 13:43:35;;;;;;;3.43;3.13;;;11.00;85.60;;;;;;5045865;28;20451;-65
2021/04/16 13:46:03;;;;;;;4.83;3.73;;;10.70;83.80;;;;;;5046686;28;20431;-66
2021/04/16 13:48:30;;;;;;;5.73;3.80;;;10.10;83.80;;;;;;5047446;28;20427;-66
2021/04/16 13:50:57;;;;;;;7.43;4.07;;;9.90;87.40;;;;;;5050263;28;20427;-66
2021/04/16 13:53:25;;;;;;;11.10;5.30;;;9.60;86.00;;;;;;5050338;28;20449;-66
2021/04/16 13:55:51;;;;;;;5.33;4.40;;;9.10;87.20;;;;;;5049878;28;20431;-66
2021/04/16 13:58:18;;;;;;;5.70;4.87;;;9.50;89.60;;;;;;5050319;28;20876;-65
2021/04/16 14:00:46;;;;;;;6.03;4.00;;;10.20;90.10;;;;;;5049760;28;20435;-65
2021/04/16 14:03:19;;;;;;;6.90;4.20;;;11.00;85.70;;;;;;5034440;27;20539;-65
2021/04/16 14:05:50;;;;;;;7.43;3.40;;;11.40;82.40;;;;;;5030048;28;20436;-65
2021/04/16 14:08:28;;;;;;;3.93;3.63;;;11.80;81.70;;;;;;5030220;28;20442;-65
2021/04/16 14:10:54;;;;;;;4.20;3.80;;;11.60;77.20;;;;;;5029858;28;20908;-66
2021/04/16 14:13:21;;;;;;;3.77;3.47;;;11.80;79.50;;;;;;5029774;28;20466;-65
2021/04/16 14:15:48;;;;;;;4.20;3.53;;;12.30;78.80;;;;;;5030081;28;20420;-65
2021/04/16 14:18:27;;;;;;;3.77;3.47;;;12.80;78.60;;;;;;5029662;28;20424;-66
2021/04/16 14:20:54;;;;;;;4.50;3.83;;;13.30;77.00;;;;;;5029647;28;20428;-65
2021/04/16 14:23:22;;;;;;;4.20;3.80;;;13.40;74.70;;;;;;5031564;27;20466;-65
2021/04/16 14:25:50;;;;;;;4.17;3.77;;;13.30;78.20;;;;;;5029763;28;20428;-66
2021/04/16 14:28:20;;;;;;;4.00;3.57;;;12.80;73.40;;;;;;5029769;28;20436;-65
2021/04/16 14:30:46;;;;;;;4.80;4.33;;;11.90;74.70;;;;;;5030372;28;20919;-66
2021/04/16 14:33:19;;;;;;;4.27;3.87;;;11.20;75.50;;;;;;5044701;28;20458;-66
2021/04/16 14:35:48;;;;;;;5.40;4.90;;;10.60;75.60;;;;;;5049749;28;20490;-66
2021/04/16 14:38:15;;;;;;;4.83;4.00;;;9.60;77.60;;;;;;5049512;28;20419;-66
2021/04/16 14:40:41;;;;;;;4.67;4.10;;;9.20;80.80;;;;;;5049552;28;20426;-65
2021/04/16 14:43:11;;;;;;;4.93;4.53;;;9.50;81.00;;;;;;5049397;28;20451;-66
2021/04/16 14:45:40;;;;;;;4.70;4.13;;;10.10;80.70;;;;;;5049685;28;20491;-66
2021/04/16 14:48:08;;;;;;;4.40;4.00;;;10.80;77.80;;;;;;5049250;27;20419;-65
2021/04/16 14:50:35;;;;;;;5.53;4.00;;;11.50;79.30;;;;;;5049207;28;20473;-65
2021/04/16 14:53:05;;;;;;;4.60;3.97;;;12.20;78.20;;;;;;5046802;27;20460;-65
2021/04/16 14:55:35;;;;;;;4.70;3.50;;;12.80;78.10;;;;;;5029737;28;20424;-65
2021/04/16 14:58:02;;;;;;;4.33;3.93;;;13.00;75.80;;;;;;5029589;28;20432;-66
2021/04/16 15:00:32;;;;;;;5.00;3.80;;;12.00;76.30;;;;;;5029004;28;20479;-66
2021/04/16 15:02:59;;;;;;;5.83;4.07;;;11.40;75.30;;;;;;5029250;28;20463;-65
2021/04/16 15:05:26;;;;;;;5.27;3.83;;;10.90;76.70;;;;;;5029922;27;20495;-66
2021/04/16 15:07:55;;;;;;;4.93;4.43;;;10.40;78.70;;;;;;5029574;28;20431;-67
2021/04/16 15:10:26;;;;;;;8.90;4.77;;;10.50;78.40;;;;;;5028950;28;20486;-66
2021/04/16 15:12:53;;;;;;;5.00;3.80;;;10.70;78.80;;;;;;5029257;28;20464;-66
2021/04/16 15:15:26;;;;;;;7.23;4.43;;;11.00;78.20;;;;;;5029231;28;20430;-66
2021/04/16 15:17:54;;;;;;;5.30;4.37;;;11.30;77.70;;;;;;5029156;28;20446;-66